Time;durP1;ratioP1;P1;durP2;ratioP2;P2;SDS_P1;SDS_P2;PMS_P1;PMS_P2;Temp;Humidity;BMP_temperature;BMP_pressure;BME280_temperature;BME280_humidity;BME280_pressure;Samples;Min_cycle;Max_cycle;Signal;HPM_P1;HPM_P2
2023/05/25 00:01:18;;;;;;;3.20;2.33;;;;;;;;;;5071891;28;20025;-78
2023/05/25 00:03:44;;;;;;;2.40;2.10;;;;;;;;;;5069967;28;20201;-78
2023/05/25 00:06:11;;;;;;;3.60;2.30;;;;;;;;;;5069898;28;20029;-79
2023/05/25 00:08:41;;;;;;;2.88;2.22;;;;;;;;;;5073929;28;20017;-79
2023/05/25 00:11:07;;;;;;;3.00;2.50;;;;;;;;;;5073407;28;20025;-78
2023/05/25 00:13:34;;;;;;;2.78;2.40;;;;;;;;;;5070889;28;20040;-79
2023/05/25 00:16:00;;;;;;;2.53;2.25;;;;;;;;;;5072335;28;20078;-77
2023/05/25 00:18:26;;;;;;;2.60;2.30;;;;;;;;;;5070354;28;20025;-79
2023/05/25 00:20:53;;;;;;;3.08;2.33;;;;;;;;;;5065520;28;20036;-78
2023/05/25 00:23:20;;;;;;;2.60;2.22;;;;;;;;;;5069843;28;20134;-79
2023/05/25 00:25:46;;;;;;;3.90;2.38;;;;;;;;;;5068551;28;20029;-79
2023/05/25 00:28:12;;;;;;;3.00;2.20;;;;;;;;;;5071334;28;20029;-79
2023/05/25 00:30:39;;;;;;;3.00;2.40;;;;;;;;;;5077571;28;20028;-78
2023/05/25 00:33:05;;;;;;;2.58;2.10;;;;;;;;;;5068117;28;20347;-77
2023/05/25 00:35:31;;;;;;;3.78;2.30;;;;;;;;;;5064155;28;20055;-78
2023/05/25 00:37:57;;;;;;;3.70;2.10;;;;;;;;;;5068150;28;20028;-78
2023/05/25 00:40:23;;;;;;;3.60;2.40;;;;;;;;;;5064615;28;20032;-78
2023/05/25 00:42:50;;;;;;;3.83;2.40;;;;;;;;;;5062349;28;20472;-78
2023/05/25 00:45:16;;;;;;;2.88;2.22;;;;;;;;;;5062616;28;20036;-77
2023/05/25 00:47:43;;;;;;;3.20;2.40;;;;;;;;;;5067714;28;20486;-79
2023/05/25 00:50:10;;;;;;;3.92;2.20;;;;;;;;;;5059363;28;20047;-78
2023/05/25 00:52:36;;;;;;;2.38;2.10;;;;;;;;;;5066010;28;20051;-77
2023/05/25 00:55:04;;;;;;;3.95;2.45;;;;;;;;;;5062931;28;20029;-78
2023/05/25 00:57:32;;;;;;;3.58;2.40;;;;;;;;;;5069185;28;20386;-78
2023/05/25 01:00:00;;;;;;;2.60;2.40;;;;;;;;;;5068195;28;20402;-78
2023/05/25 01:02:27;;;;;;;2.97;2.20;;;;;;;;;;5069916;28;20039;-79
2023/05/25 01:04:58;;;;;;;3.10;2.08;;;;;;;;;;5064654;28;20088;-78
2023/05/25 01:07:25;;;;;;;2.67;2.20;;;;;;;;;;5068516;28;20035;-78
2023/05/25 01:10:00;;;;;;;3.22;1.95;;;;;;;;;;5066254;28;20028;-78
2023/05/25 01:12:27;;;;;;;2.95;2.20;;;;;;;;;;5067509;28;20032;-78
2023/05/25 01:14:53;;;;;;;2.13;1.92;;;;;;;;;;5069167;28;20752;-78
2023/05/25 01:17:19;;;;;;;2.72;2.30;;;;;;;;;;5059345;28;20031;-79
2023/05/25 01:19:46;;;;;;;2.72;2.20;;;;;;;;;;5062406;28;20466;-76
2023/05/25 01:22:18;;;;;;;2.72;2.17;;;;;;;;;;5065046;28;20032;-78
2023/05/25 01:24:46;;;;;;;2.47;2.13;;;;;;;;;;5057883;28;20525;-78
2023/05/25 01:27:20;;;;;;;2.53;2.05;;;;;;;;;;5066571;28;20162;-78
2023/05/25 01:29:47;;;;;;;2.97;2.33;;;;;;;;;;5059845;28;20021;-78
2023/05/25 01:32:13;;;;;;;4.50;3.28;;;;;;;;;;5063594;28;20332;-79
2023/05/25 01:34:41;;;;;;;2.60;2.22;;;;;;;;;;5067194;28;20374;-78
2023/05/25 01:37:07;;;;;;;3.05;2.22;;;;;;;;;;5068785;28;20477;-78
2023/05/25 01:39:33;;;;;;;3.45;2.28;;;;;;;;;;5069153;28;20025;-78
2023/05/25 01:42:00;;;;;;;2.20;2.00;;;;;;;;;;5068382;28;20033;-78
2023/05/25 01:44:27;;;;;;;2.75;2.30;;;;;;;;;;5066556;28;20539;-78
2023/05/25 01:46:58;;;;;;;4.00;3.10;;;;;;;;;;5068545;28;20521;-78
2023/05/25 01:49:28;;;;;;;3.17;2.30;;;;;;;;;;5066859;28;20032;-78
2023/05/25 01:52:07;;;;;;;2.25;2.00;;;;;;;;;;5064277;28;20028;-78
2023/05/25 01:54:38;;;;;;;2.78;2.05;;;;;;;;;;5063629;28;20029;-77
2023/05/25 01:57:07;;;;;;;2.58;2.00;;;;;;;;;;5069745;28;20564;-78
2023/05/25 01:59:34;;;;;;;3.25;2.42;;;;;;;;;;5068648;28;20036;-78
2023/05/25 02:02:00;;;;;;;5.38;2.78;;;;;;;;;;5062811;28;20033;-77
2023/05/25 02:04:26;;;;;;;3.60;2.40;;;;;;;;;;5066348;28;20701;-78
2023/05/25 02:06:52;;;;;;;3.67;2.72;;;;;;;;;;5070133;28;20095;-78
2023/05/25 02:09:19;;;;;;;5.85;2.25;;;;;;;;;;5069356;28;20213;-78
2023/05/25 02:11:45;;;;;;;3.45;2.80;;;;;;;;;;5068606;28;20062;-78
2023/05/25 02:14:11;;;;;;;3.05;2.53;;;;;;;;;;5065513;28;20033;-80
2023/05/25 02:16:37;;;;;;;2.75;2.53;;;;;;;;;;5070662;28;20100;-78
2023/05/25 02:19:03;;;;;;;7.15;2.63;;;;;;;;;;5070963;28;20029;-78
2023/05/25 02:21:30;;;;;;;3.72;2.63;;;;;;;;;;5055973;28;20509;-78
2023/05/25 02:23:56;;;;;;;3.72;2.60;;;;;;;;;;5068474;28;20090;-78
2023/05/25 02:26:23;;;;;;;4.20;2.67;;;;;;;;;;5048719;28;20044;-78
2023/05/25 02:28:50;;;;;;;3.38;2.33;;;;;;;;;;5070319;28;20024;-78
2023/05/25 02:31:17;;;;;;;3.15;2.47;;;;;;;;;;5068347;28;20101;-78
2023/05/25 02:33:43;;;;;;;5.30;2.65;;;;;;;;;;5065802;28;20099;-78
2023/05/25 02:36:09;;;;;;;4.03;2.80;;;;;;;;;;5074758;28;20483;-78
2023/05/25 02:38:35;;;;;;;5.90;2.97;;;;;;;;;;5065886;28;20506;-78
2023/05/25 02:41:02;;;;;;;3.42;2.30;;;;;;;;;;5071527;28;20033;-78
2023/05/25 02:43:28;;;;;;;3.78;2.65;;;;;;;;;;5065738;28;20016;-77
2023/05/25 02:45:57;;;;;;;5.13;2.67;;;;;;;;;;5074649;28;20479;-78
2023/05/25 02:48:23;;;;;;;5.78;3.08;;;;;;;;;;5074030;28;20036;-77
2023/05/25 02:50:49;;;;;;;3.83;2.45;;;;;;;;;;5069032;28;20124;-80
2023/05/25 02:53:15;;;;;;;3.67;2.63;;;;;;;;;;5072486;28;20048;-78
2023/05/25 02:55:42;;;;;;;4.50;2.95;;;;;;;;;;5065559;28;20507;-77
2023/05/25 02:58:08;;;;;;;5.38;2.85;;;;;;;;;;5067139;28;20029;-78
2023/05/25 03:00:35;;;;;;;3.13;2.53;;;;;;;;;;5068146;28;20030;-78
2023/05/25 03:03:01;;;;;;;3.60;2.90;;;;;;;;;;5066627;28;20503;-78
2023/05/25 03:05:27;;;;;;;3.00;2.70;;;;;;;;;;5064450;28;20027;-78
2023/05/25 03:07:53;;;;;;;3.17;2.42;;;;;;;;;;5068120;28;20746;-78
2023/05/25 03:10:19;;;;;;;4.55;2.60;;;;;;;;;;5067472;28;20028;-78
2023/05/25 03:12:45;;;;;;;4.03;2.70;;;;;;;;;;5071445;28;20034;-78
2023/05/25 03:15:14;;;;;;;4.38;3.08;;;;;;;;;;5068784;28;20033;-78
2023/05/25 03:17:40;;;;;;;3.47;2.55;;;;;;;;;;5068089;28;20027;-78
2023/05/25 03:20:09;;;;;;;4.60;2.40;;;;;;;;;;5061895;28;20032;-78
2023/05/25 03:22:35;;;;;;;3.38;2.80;;;;;;;;;;5064767;28;20444;-78
2023/05/25 03:25:02;;;;;;;4.18;2.95;;;;;;;;;;5073325;28;20075;-78
2023/05/25 03:27:28;;;;;;;5.43;2.90;;;;;;;;;;5068361;28;20029;-78
2023/05/25 03:29:54;;;;;;;3.10;2.45;;;;;;;;;;5067119;28;20093;-78
2023/05/25 03:32:21;;;;;;;5.10;3.25;;;;;;;;;;5061127;28;20076;-79
2023/05/25 03:34:48;;;;;;;5.20;2.67;;;;;;;;;;5065351;28;20020;-79
2023/05/25 03:37:14;;;;;;;7.45;3.92;;;;;;;;;;5066394;28;20158;-78
2023/05/25 03:39:40;;;;;;;4.85;2.80;;;;;;;;;;5063719;28;20394;-78
2023/05/25 03:42:06;;;;;;;5.03;3.28;;;;;;;;;;5063213;28;20024;-78
2023/05/25 03:44:32;;;;;;;3.78;2.90;;;;;;;;;;5068939;28;20032;-78
2023/05/25 03:46:59;;;;;;;3.90;2.72;;;;;;;;;;5067007;28;20413;-78
2023/05/25 03:49:26;;;;;;;5.60;2.88;;;;;;;;;;5065901;28;20436;-79
2023/05/25 03:51:53;;;;;;;3.17;2.38;;;;;;;;;;5067973;28;20101;-79
2023/05/25 03:54:19;;;;;;;4.38;2.72;;;;;;;;;;5066318;28;20055;-78
2023/05/25 03:56:46;;;;;;;3.85;2.80;;;;;;;;;;5063892;28;20048;-78
2023/05/25 03:59:12;;;;;;;4.32;2.50;;;;;;;;;;5061949;28;20511;-78
2023/05/25 04:01:38;;;;;;;4.93;3.08;;;;;;;;;;5058703;28;20017;-78
2023/05/25 04:04:05;;;;;;;5.78;3.40;;;;;;;;;;5058727;28;20124;-79
2023/05/25 04:06:32;;;;;;;4.43;2.92;;;;;;;;;;5060720;28;20018;-78
2023/05/25 04:09:00;;;;;;;3.55;3.00;;;;;;;;;;5060127;28;20479;-78
2023/05/25 04:11:26;;;;;;;3.75;2.85;;;;;;;;;;5058830;28;20111;-78
2023/05/25 04:13:52;;;;;;;4.75;3.17;;;;;;;;;;5065358;28;20033;-78
2023/05/25 04:16:18;;;;;;;4.47;3.00;;;;;;;;;;5065092;28;20033;-78
2023/05/25 04:18:44;;;;;;;5.50;2.72;;;;;;;;;;5062700;28;20143;-78
2023/05/25 04:21:10;;;;;;;4.18;3.00;;;;;;;;;;5055098;28;20447;-78
2023/05/25 04:23:36;;;;;;;4.75;2.97;;;;;;;;;;5062221;28;20118;-78
2023/05/25 04:26:04;;;;;;;6.63;3.15;;;;;;;;;;5065569;28;20060;-78
2023/05/25 04:28:31;;;;;;;5.85;2.80;;;;;;;;;;5056131;28;20024;-78
2023/05/25 04:30:57;;;;;;;7.88;3.35;;;;;;;;;;5061272;28;20021;-79
2023/05/25 04:33:23;;;;;;;4.68;3.10;;;;;;;;;;5066568;28;20052;-78
2023/05/25 04:35:50;;;;;;;4.22;3.05;;;;;;;;;;5055114;28;20025;-78
2023/05/25 04:38:17;;;;;;;5.07;2.90;;;;;;;;;;5049937;28;20044;-78
2023/05/25 04:40:45;;;;;;;4.22;2.88;;;;;;;;;;5066197;28;20090;-78
2023/05/25 04:43:12;;;;;;;6.78;3.65;;;;;;;;;;5067212;28;20037;-78
2023/05/25 04:45:38;;;;;;;4.93;3.63;;;;;;;;;;5059362;28;20433;-78
2023/05/25 04:48:06;;;;;;;5.22;3.17;;;;;;;;;;5058573;28;20052;-79
2023/05/25 04:50:32;;;;;;;3.40;3.08;;;;;;;;;;5052075;28;20048;-78
2023/05/25 04:52:58;;;;;;;4.68;3.00;;;;;;;;;;5064079;28;20962;-78
2023/05/25 04:55:25;;;;;;;4.95;3.05;;;;;;;;;;5065181;28;20490;-78
2023/05/25 04:57:52;;;;;;;6.70;2.80;;;;;;;;;;5060555;28;20035;-78
2023/05/25 05:00:19;;;;;;;6.65;2.97;;;;;;;;;;5066429;28;20073;-78
2023/05/25 05:02:45;;;;;;;5.07;2.85;;;;;;;;;;5063233;28;20056;-78
2023/05/25 05:05:11;;;;;;;5.15;2.75;;;;;;;;;;5060015;28;20029;-78
2023/05/25 05:07:37;;;;;;;4.35;2.90;;;;;;;;;;5055685;28;20044;-79
2023/05/25 05:10:04;;;;;;;3.85;2.60;;;;;;;;;;5053362;28;20036;-79
2023/05/25 05:12:30;;;;;;;4.85;3.33;;;;;;;;;;5058124;28;20107;-77
2023/05/25 05:14:56;;;;;;;8.40;3.55;;;;;;;;;;5048457;28;20029;-78
2023/05/25 05:17:22;;;;;;;6.45;3.40;;;;;;;;;;5058735;28;20017;-79
2023/05/25 05:19:49;;;;;;;4.22;2.72;;;;;;;;;;5051091;28;20051;-78
2023/05/25 05:22:15;;;;;;;5.30;3.15;;;;;;;;;;5062372;28;20021;-79
2023/05/25 05:24:41;;;;;;;4.13;2.80;;;;;;;;;;5060421;28;20049;-78
2023/05/25 05:27:07;;;;;;;5.55;3.10;;;;;;;;;;5063152;28;20029;-77
2023/05/25 05:29:34;;;;;;;6.28;2.95;;;;;;;;;;5064061;28;20039;-77
2023/05/25 05:32:00;;;;;;;4.38;3.30;;;;;;;;;;5065239;28;20032;-77
2023/05/25 05:34:26;;;;;;;5.35;3.13;;;;;;;;;;5068800;28;20031;-78
2023/05/25 05:36:52;;;;;;;4.63;3.80;;;;;;;;;;5060327;28;20036;-77
2023/05/25 05:39:18;;;;;;;4.53;3.17;;;;;;;;;;5067379;28;20020;-78
2023/05/25 05:41:44;;;;;;;4.13;2.90;;;;;;;;;;5069213;28;20024;-78
2023/05/25 05:44:11;;;;;;;7.35;3.50;;;;;;;;;;5065513;28;20046;-78
2023/05/25 05:46:37;;;;;;;10.30;4.25;;;;;;;;;;5067328;28;20036;-79
2023/05/25 05:49:04;;;;;;;7.50;4.45;;;;;;;;;;5062624;28;20033;-79
2023/05/25 05:51:30;;;;;;;4.47;2.80;;;;;;;;;;5062923;28;20447;-78
2023/05/25 05:53:56;;;;;;;5.85;3.15;;;;;;;;;;5060499;28;20027;-79
2023/05/25 05:56:22;;;;;;;7.18;3.35;;;;;;;;;;5057855;28;20105;-78
2023/05/25 05:58:50;;;;;;;5.55;2.85;;;;;;;;;;5067447;28;20055;-78
2023/05/25 06:01:16;;;;;;;5.90;3.63;;;;;;;;;;5068774;28;20107;-78
2023/05/25 06:03:43;;;;;;;4.25;3.03;;;;;;;;;;5062087;28;20032;-78
2023/05/25 06:06:09;;;;;;;8.85;4.35;;;;;;;;;;5064756;28;20028;-77
2023/05/25 06:08:35;;;;;;;9.75;3.45;;;;;;;;;;5063782;28;20031;-78
2023/05/25 06:11:01;;;;;;;4.22;2.78;;;;;;;;;;5058851;28;20048;-78
2023/05/25 06:13:27;;;;;;;6.05;3.15;;;;;;;;;;5060248;28;20032;-77
2023/05/25 06:15:54;;;;;;;8.23;3.20;;;;;;;;;;5064639;28;20029;-78
2023/05/25 06:18:20;;;;;;;5.25;3.30;;;;;;;;;;5061642;28;20024;-78
2023/05/25 06:20:46;;;;;;;6.30;3.35;;;;;;;;;;5080907;28;20021;-77
2023/05/25 06:23:12;;;;;;;6.20;2.92;;;;;;;;;;5065231;28;20041;-78
2023/05/25 06:25:39;;;;;;;5.82;3.63;;;;;;;;;;5067792;28;20028;-78
2023/05/25 06:28:06;;;;;;;8.38;3.35;;;;;;;;;;5079427;28;20634;-78
2023/05/25 06:30:33;;;;;;;8.50;3.38;;;;;;;;;;5062908;28;20028;-78
2023/05/25 06:32:59;;;;;;;7.22;4.00;;;;;;;;;;5059813;28;20055;-78
2023/05/25 06:35:25;;;;;;;9.70;3.40;;;;;;;;;;5061622;28;20104;-80
2023/05/25 06:37:51;;;;;;;5.85;3.10;;;;;;;;;;5063625;28;20024;-78
2023/05/25 06:40:18;;;;;;;6.85;3.60;;;;;;;;;;5062538;28;20100;-78
2023/05/25 06:42:44;;;;;;;6.65;3.60;;;;;;;;;;5067436;28;20045;-77
2023/05/25 06:45:10;;;;;;;9.48;3.78;;;;;;;;;;5065243;28;20038;-78
2023/05/25 06:47:37;;;;;;;7.95;4.15;;;;;;;;;;5069255;28;20389;-79
2023/05/25 06:50:03;;;;;;;6.45;3.00;;;;;;;;;;5061242;28;20100;-79
2023/05/25 06:52:30;;;;;;;6.55;3.28;;;;;;;;;;5066460;28;20032;-77
2023/05/25 06:54:57;;;;;;;6.45;3.20;;;;;;;;;;5075053;28;20556;-77
2023/05/25 06:57:24;;;;;;;9.82;3.22;;;;;;;;;;5067271;28;20045;-79
2023/05/25 06:59:50;;;;;;;9.82;3.78;;;;;;;;;;5062894;28;20022;-79
2023/05/25 07:02:17;;;;;;;9.35;3.15;;;;;;;;;;5072520;28;20140;-78
2023/05/25 07:04:43;;;;;;;8.90;3.47;;;;;;;;;;5059595;28;20024;-79
2023/05/25 07:07:11;;;;;;;12.38;3.60;;;;;;;;;;5059515;28;20390;-79
2023/05/25 07:09:38;;;;;;;13.63;4.30;;;;;;;;;;5053164;28;20462;-78
2023/05/25 07:12:06;;;;;;;7.63;3.63;;;;;;;;;;5060343;28;20227;-78
2023/05/25 07:14:33;;;;;;;12.15;3.45;;;;;;;;;;5059209;28;20025;-78
2023/05/25 07:17:00;;;;;;;7.13;3.60;;;;;;;;;;5057018;28;20028;-78
2023/05/25 07:19:26;;;;;;;8.95;4.22;;;;;;;;;;5059415;28;20032;-78
2023/05/25 07:21:52;;;;;;;8.00;2.90;;;;;;;;;;5067150;28;20203;-78
2023/05/25 07:24:18;;;;;;;6.70;2.92;;;;;;;;;;5063149;28;20722;-78
2023/05/25 07:26:44;;;;;;;8.95;4.07;;;;;;;;;;5054446;28;20036;-78
2023/05/25 07:29:11;;;;;;;11.82;3.88;;;;;;;;;;5060628;28;20029;-78
2023/05/25 07:31:37;;;;;;;7.68;3.05;;;;;;;;;;5066142;28;20099;-78
2023/05/25 07:34:03;;;;;;;11.55;3.28;;;;;;;;;;5070729;28;20036;-77
2023/05/25 07:36:30;;;;;;;5.93;3.38;;;;;;;;;;5063064;28;20024;-77
2023/05/25 07:38:56;;;;;;;6.80;2.97;;;;;;;;;;5066804;28;20039;-78
2023/05/25 07:41:22;;;;;;;5.63;3.22;;;;;;;;;;5061969;28;20144;-78
2023/05/25 07:43:48;;;;;;;9.30;3.80;;;;;;;;;;5058709;28;20378;-78
2023/05/25 07:46:16;;;;;;;8.57;3.53;;;;;;;;;;5058610;28;20033;-78
2023/05/25 07:48:42;;;;;;;9.15;3.67;;;;;;;;;;5061013;28;20035;-77
2023/05/25 07:51:08;;;;;;;10.02;3.45;;;;;;;;;;5060468;28;20029;-77
2023/05/25 07:53:35;;;;;;;9.77;3.40;;;;;;;;;;5060472;28;20051;-77
2023/05/25 07:56:01;;;;;;;7.55;3.30;;;;;;;;;;5045982;28;20457;-77
2023/05/25 07:58:27;;;;;;;11.07;3.80;;;;;;;;;;5052264;28;20029;-77
2023/05/25 08:00:53;;;;;;;7.88;3.20;;;;;;;;;;5054109;28;20021;-79
2023/05/25 08:03:20;;;;;;;6.55;2.72;;;;;;;;;;5059123;28;20032;-77
2023/05/25 08:05:46;;;;;;;7.68;3.47;;;;;;;;;;5064400;28;20064;-77
2023/05/25 08:08:13;;;;;;;9.15;3.33;;;;;;;;;;5058852;28;20398;-78
2023/05/25 08:10:39;;;;;;;9.10;2.90;;;;;;;;;;5056504;28;20506;-76
2023/05/25 08:13:05;;;;;;;7.05;3.30;;;;;;;;;;5056475;28;20439;-77
2023/05/25 08:15:31;;;;;;;5.35;2.70;;;;;;;;;;5061270;28;20016;-78
2023/05/25 08:17:57;;;;;;;11.00;3.78;;;;;;;;;;5060371;28;20497;-78
2023/05/25 08:20:24;;;;;;;6.78;3.13;;;;;;;;;;5056476;28;20080;-77
2023/05/25 08:22:52;;;;;;;9.13;4.72;;;;;;;;;;5059437;28;20016;-77
2023/05/25 08:25:18;;;;;;;5.03;2.60;;;;;;;;;;5061213;28;20064;-77
2023/05/25 08:27:44;;;;;;;8.13;3.13;;;;;;;;;;5063928;28;20034;-77
2023/05/25 08:30:10;;;;;;;7.53;2.92;;;;;;;;;;5060326;28;20494;-78
2023/05/25 08:32:37;;;;;;;5.68;3.17;;;;;;;;;;5060618;28;20429;-78
2023/05/25 08:35:03;;;;;;;4.63;2.50;;;;;;;;;;5062172;28;20329;-77
2023/05/25 08:37:31;;;;;;;6.28;3.40;;;;;;;;;;5058199;28;20483;-78
2023/05/25 08:39:59;;;;;;;8.98;3.70;;;;;;;;;;5066163;28;20110;-77
2023/05/25 08:42:26;;;;;;;7.00;3.58;;;;;;;;;;5064943;28;20071;-78
2023/05/25 08:44:52;;;;;;;6.95;2.92;;;;;;;;;;5060347;28;20144;-77
2023/05/25 08:47:21;;;;;;;10.43;3.92;;;;;;;;;;5059708;28;20095;-78
2023/05/25 08:49:48;;;;;;;6.70;2.80;;;;;;;;;;5055975;28;20478;-78
2023/05/25 08:52:15;;;;;;;8.77;3.90;;;;;;;;;;5060863;28;20378;-77
2023/05/25 08:54:44;;;;;;;7.95;2.85;;;;;;;;;;5054429;28;20295;-77
2023/05/25 08:57:12;;;;;;;8.13;3.38;;;;;;;;;;5060406;28;20018;-77
2023/05/25 08:59:57;;;;;;;5.65;3.15;;;;;;;;;;5058809;28;20034;-78
2023/05/25 09:02:32;;;;;;;9.40;3.17;;;;;;;;;;5057800;28;20024;-77
2023/05/25 09:05:00;;;;;;;7.70;3.05;;;;;;;;;;5063125;28;20494;-77
2023/05/25 09:07:27;;;;;;;5.10;3.20;;;;;;;;;;5062401;28;20024;-77
2023/05/25 09:09:53;;;;;;;8.70;3.40;;;;;;;;;;5069917;28;20637;-77
2023/05/25 09:12:20;;;;;;;7.97;2.88;;;;;;;;;;5069752;28;20086;-77
2023/05/25 09:14:46;;;;;;;8.98;2.60;;;;;;;;;;5070428;28;20024;-77
2023/05/25 09:17:17;;;;;;;5.18;3.08;;;;;;;;;;5065910;28;20033;-78
2023/05/25 09:19:43;;;;;;;7.45;2.83;;;;;;;;;;5056015;28;20830;-79
2023/05/25 09:22:10;;;;;;;6.85;2.80;;;;;;;;;;5063200;28;20016;-78
2023/05/25 09:24:36;;;;;;;7.18;2.95;;;;;;;;;;5067094;28;20495;-77
2023/05/25 09:27:06;;;;;;;7.95;2.95;;;;;;;;;;5063031;28;20056;-77
2023/05/25 09:29:32;;;;;;;9.90;3.42;;;;;;;;;;5059711;28;20037;-77
2023/05/25 09:31:59;;;;;;;7.82;3.40;;;;;;;;;;5067749;28;20060;-77
2023/05/25 09:34:32;;;;;;;10.10;3.30;;;;;;;;;;5071813;28;20028;-75
2023/05/25 09:36:59;;;;;;;5.47;2.90;;;;;;;;;;5061971;28;20029;-77
2023/05/25 09:39:25;;;;;;;8.45;3.58;;;;;;;;;;5066341;28;20034;-78
2023/05/25 09:41:52;;;;;;;5.88;2.90;;;;;;;;;;5057334;28;20474;-77
2023/05/25 09:44:18;;;;;;;5.85;2.40;;;;;;;;;;5079901;28;20033;-77
2023/05/25 09:46:44;;;;;;;4.03;2.58;;;;;;;;;;5064515;28;20104;-78
2023/05/25 09:49:11;;;;;;;4.63;2.70;;;;;;;;;;5071301;28;20024;-78
2023/05/25 09:51:37;;;;;;;9.25;3.58;;;;;;;;;;5072860;28;20024;-77
2023/05/25 09:54:05;;;;;;;5.68;3.10;;;;;;;;;;5070442;28;20390;-77
2023/05/25 09:56:32;;;;;;;5.82;2.67;;;;;;;;;;5065657;28;20471;-78
2023/05/25 09:58:58;;;;;;;6.55;2.88;;;;;;;;;;5067283;28;20501;-76
2023/05/25 10:01:26;;;;;;;6.90;3.05;;;;;;;;;;5065685;28;21254;-76
2023/05/25 10:03:55;;;;;;;7.00;3.00;;;;;;;;;;5068733;28;20149;-78
2023/05/25 10:06:21;;;;;;;6.85;2.97;;;;;;;;;;5060822;28;20059;-77
2023/05/25 10:08:48;;;;;;;4.68;2.70;;;;;;;;;;5055042;28;20102;-77
2023/05/25 10:11:15;;;;;;;8.70;3.13;;;;;;;;;;5052730;28;20495;-77
2023/05/25 10:13:45;;;;;;;4.60;2.70;;;;;;;;;;5062683;28;20016;-78
2023/05/25 10:16:18;;;;;;;6.10;2.80;;;;;;;;;;5066154;28;20025;-78
2023/05/25 10:18:48;;;;;;;6.30;2.83;;;;;;;;;;5067398;28;20666;-78
2023/05/25 10:21:16;;;;;;;5.72;2.50;;;;;;;;;;5063177;28;20436;-78
2023/05/25 10:23:51;;;;;;;3.97;2.95;;;;;;;;;;5065097;28;20037;-79
2023/05/25 10:26:23;;;;;;;4.78;2.65;;;;;;;;;;5061981;28;20531;-77
2023/05/25 10:28:50;;;;;;;3.17;2.38;;;;;;;;;;5064635;28;20842;-77
2023/05/25 10:31:17;;;;;;;7.22;2.80;;;;;;;;;;5063108;28;20427;-78
2023/05/25 10:33:44;;;;;;;8.88;3.17;;;;;;;;;;5067285;28;20110;-77
2023/05/25 10:36:12;;;;;;;5.65;2.55;;;;;;;;;;5070552;28;20175;-80
2023/05/25 10:38:39;;;;;;;5.15;2.75;;;;;;;;;;5060521;28;20436;-77
2023/05/25 10:41:08;;;;;;;7.55;2.92;;;;;;;;;;5059889;28;20085;-78
2023/05/25 10:43:34;;;;;;;6.70;3.00;;;;;;;;;;5065462;28;20016;-78
2023/05/25 10:46:01;;;;;;;8.45;2.90;;;;;;;;;;5062559;28;20037;-77
2023/05/25 10:48:39;;;;;;;6.60;2.80;;;;;;;;;;5065441;28;20101;-77
2023/05/25 10:51:06;;;;;;;6.18;2.50;;;;;;;;;;5058692;28;20035;-79
2023/05/25 10:53:32;;;;;;;4.75;2.75;;;;;;;;;;5066980;28;20378;-78
2023/05/25 10:55:58;;;;;;;4.85;2.80;;;;;;;;;;5066398;28;20025;-77
2023/05/25 10:58:26;;;;;;;2.97;2.30;;;;;;;;;;5068698;28;20052;-78
2023/05/25 11:01:00;;;;;;;5.78;2.92;;;;;;;;;;5064432;28;20013;-77
2023/05/25 11:03:47;;;;;;;3.35;2.60;;;;;;;;;;5066850;28;20032;-76
2023/05/25 11:06:17;;;;;;;3.28;2.20;;;;;;;;;;5065589;28;20474;-77
2023/05/25 11:09:00;;;;;;;3.90;2.30;;;;;;;;;;5085141;28;20028;-78
2023/05/25 11:11:41;;;;;;;4.95;2.20;;;;;;;;;;5059919;28;20106;-79
2023/05/25 11:14:42;;;;;;;4.10;2.50;;;;;;;;;;5061665;28;20031;-78
2023/05/25 11:17:10;;;;;;;7.30;3.05;;;;;;;;;;5015036;28;20052;-78
2023/05/25 11:19:53;;;;;;;5.32;2.80;;;;;;;;;;5052217;28;20048;-78
2023/05/25 11:22:20;;;;;;;3.63;2.30;;;;;;;;;;5066145;28;20035;-77
2023/05/25 11:24:50;;;;;;;5.20;3.15;;;;;;;;;;5067838;28;20135;-78
2023/05/25 11:27:21;;;;;;;3.08;2.58;;;;;;;;;;5057677;28;20649;-78
2023/05/25 11:29:49;;;;;;;5.15;2.60;;;;;;;;;;5052645;28;20044;-77
2023/05/25 11:32:16;;;;;;;3.70;2.25;;;;;;;;;;5060917;28;20033;-78
2023/05/25 11:34:45;;;;;;;5.25;2.83;;;;;;;;;;5066253;28;20028;-78
2023/05/25 11:37:12;;;;;;;6.75;2.42;;;;;;;;;;5053483;28;20480;-78
2023/05/25 11:39:39;;;;;;;4.20;2.55;;;;;;;;;;5060700;28;20418;-77
2023/05/25 11:42:06;;;;;;;3.85;2.40;;;;;;;;;;5059276;28;20020;-77
2023/05/25 11:44:33;;;;;;;3.28;2.80;;;;;;;;;;5081809;28;20449;-78
2023/05/25 11:47:04;;;;;;;4.93;2.75;;;;;;;;;;5062235;28;20024;-78
2023/05/25 11:49:34;;;;;;;9.05;2.67;;;;;;;;;;5065418;28;20024;-77
2023/05/25 11:52:05;;;;;;;5.13;2.70;;;;;;;;;;5062593;28;20851;-77
2023/05/25 11:54:34;;;;;;;4.95;2.53;;;;;;;;;;5076154;28;20040;-80
2023/05/25 11:57:00;;;;;;;5.50;2.50;;;;;;;;;;5060772;28;20108;-78
2023/05/25 11:59:26;;;;;;;6.63;2.80;;;;;;;;;;5061845;28;20028;-79
2023/05/25 12:02:02;;;;;;;5.13;2.60;;;;;;;;;;5067823;28;20593;-77
2023/05/25 12:04:29;;;;;;;3.42;2.40;;;;;;;;;;5065065;28;20044;-77
2023/05/25 12:07:06;;;;;;;2.90;2.17;;;;;;;;;;5088058;28;20555;-76
2023/05/25 12:09:32;;;;;;;3.42;2.15;;;;;;;;;;5061949;28;20598;-77
2023/05/25 12:11:59;;;;;;;5.70;3.08;;;;;;;;;;5066361;28;20028;-77
2023/05/25 12:14:25;;;;;;;4.57;2.50;;;;;;;;;;5061379;28;20036;-79
2023/05/25 12:16:52;;;;;;;6.55;2.92;;;;;;;;;;5063318;28;20402;-78
2023/05/25 12:19:18;;;;;;;3.72;2.50;;;;;;;;;;5062980;28;20055;-78
2023/05/25 12:21:44;;;;;;;7.53;2.78;;;;;;;;;;5064880;28;20020;-78
2023/05/25 12:24:12;;;;;;;4.95;2.75;;;;;;;;;;5061318;28;20051;-77
2023/05/25 12:26:56;;;;;;;5.80;2.30;;;;;;;;;;5059001;28;20028;-79
2023/05/25 12:29:22;;;;;;;3.33;2.50;;;;;;;;;;5074803;28;20296;-79
2023/05/25 12:31:48;;;;;;;5.68;2.58;;;;;;;;;;5063865;28;20033;-78
2023/05/25 12:34:15;;;;;;;3.65;2.47;;;;;;;;;;5056265;28;20485;-78
2023/05/25 12:36:51;;;;;;;4.05;2.42;;;;;;;;;;5061523;28;20141;-78
2023/05/25 12:39:38;;;;;;;3.55;2.22;;;;;;;;;;5059290;28;20016;-78
2023/05/25 12:42:08;;;;;;;4.45;2.40;;;;;;;;;;5060506;28;20029;-78
2023/05/25 12:44:35;;;;;;;5.65;2.63;;;;;;;;;;5051465;28;20037;-78
2023/05/25 12:47:13;;;;;;;4.60;2.50;;;;;;;;;;5071462;28;20414;-78
2023/05/25 12:49:40;;;;;;;6.43;3.15;;;;;;;;;;5056026;28;20089;-79
2023/05/25 12:52:07;;;;;;;3.70;2.63;;;;;;;;;;5061226;28;20040;-78
2023/05/25 12:54:39;;;;;;;3.67;2.40;;;;;;;;;;5059078;28;20081;-79
2023/05/25 12:57:06;;;;;;;5.32;2.40;;;;;;;;;;5055867;28;20446;-77
2023/05/25 12:59:33;;;;;;;2.90;2.60;;;;;;;;;;5059211;28;20158;-78
2023/05/25 13:01:59;;;;;;;5.28;2.60;;;;;;;;;;5063833;28;20032;-78
2023/05/25 13:04:26;;;;;;;6.18;2.83;;;;;;;;;;5061334;28;20547;-78
2023/05/25 13:06:52;;;;;;;4.53;2.50;;;;;;;;;;5061998;28;20020;-78
2023/05/25 13:09:19;;;;;;;3.83;2.70;;;;;;;;;;5065896;28;20012;-78
2023/05/25 13:11:45;;;;;;;5.45;2.70;;;;;;;;;;5062411;28;20028;-79
2023/05/25 13:14:11;;;;;;;3.83;2.38;;;;;;;;;;5060679;28;20097;-78
2023/05/25 13:16:37;;;;;;;3.90;2.58;;;;;;;;;;5060898;28;20021;-79
2023/05/25 13:19:03;;;;;;;4.45;2.28;;;;;;;;;;5061048;28;20079;-77
2023/05/25 13:21:29;;;;;;;3.67;2.50;;;;;;;;;;5053593;28;20024;-78
2023/05/25 13:23:56;;;;;;;5.97;2.85;;;;;;;;;;5052848;28;20226;-78
2023/05/25 13:26:22;;;;;;;3.78;2.85;;;;;;;;;;5058092;28;20106;-79
2023/05/25 13:28:48;;;;;;;4.20;2.67;;;;;;;;;;5054196;28;20032;-79
2023/05/25 13:31:14;;;;;;;5.38;2.30;;;;;;;;;;5051253;28;20102;-78
2023/05/25 13:33:41;;;;;;;3.50;2.47;;;;;;;;;;5055670;28;20402;-78
2023/05/25 13:36:07;;;;;;;3.83;2.40;;;;;;;;;;5060365;28;20506;-79
2023/05/25 13:38:34;;;;;;;3.83;1.98;;;;;;;;;;5059590;28;20542;-78
2023/05/25 13:41:01;;;;;;;2.70;2.50;;;;;;;;;;5058224;28;20059;-78
2023/05/25 13:43:27;;;;;;;3.78;2.40;;;;;;;;;;5059331;28;20908;-78
2023/05/25 13:45:53;;;;;;;4.22;2.40;;;;;;;;;;5054897;28;20489;-78
2023/05/25 13:48:20;;;;;;;4.15;2.45;;;;;;;;;;5054812;28;20043;-77
2023/05/25 13:50:46;;;;;;;3.67;2.42;;;;;;;;;;5054129;28;20067;-77
2023/05/25 13:53:13;;;;;;;4.60;2.50;;;;;;;;;;5055504;28;20067;-78
2023/05/25 13:55:39;;;;;;;3.88;2.50;;;;;;;;;;5059552;28;20033;-79
2023/05/25 13:58:06;;;;;;;2.50;2.30;;;;;;;;;;5055484;28;20028;-79
2023/05/25 14:00:32;;;;;;;2.88;2.20;;;;;;;;;;5057553;28;20064;-78
2023/05/25 14:02:58;;;;;;;4.25;2.47;;;;;;;;;;5057448;28;20032;-77
2023/05/25 14:05:24;;;;;;;3.08;2.40;;;;;;;;;;5057742;28;20051;-76
2023/05/25 14:07:51;;;;;;;4.85;2.28;;;;;;;;;;5059194;28;20036;-77
2023/05/25 14:10:17;;;;;;;4.20;2.38;;;;;;;;;;5050483;28;20399;-76
2023/05/25 14:12:43;;;;;;;4.15;2.60;;;;;;;;;;5059824;28;20037;-77
2023/05/25 14:15:10;;;;;;;3.45;2.40;;;;;;;;;;5059220;28;20029;-76
2023/05/25 14:17:36;;;;;;;4.38;2.50;;;;;;;;;;5062289;28;20012;-76
2023/05/25 14:20:02;;;;;;;4.78;2.75;;;;;;;;;;5052604;28;20137;-76
2023/05/25 14:22:29;;;;;;;4.55;2.38;;;;;;;;;;5055900;28;20033;-76
2023/05/25 14:24:55;;;;;;;6.07;3.13;;;;;;;;;;5053773;28;20056;-77
2023/05/25 14:27:21;;;;;;;4.93;2.38;;;;;;;;;;5054525;28;20116;-78
2023/05/25 14:29:48;;;;;;;5.10;2.33;;;;;;;;;;5056644;28;20033;-76
2023/05/25 14:32:14;;;;;;;4.50;2.25;;;;;;;;;;5054934;28;20410;-75
2023/05/25 14:34:40;;;;;;;2.85;2.10;;;;;;;;;;5052942;28;20175;-77
2023/05/25 14:37:06;;;;;;;5.88;2.53;;;;;;;;;;5054152;28;20042;-76
2023/05/25 14:39:33;;;;;;;3.42;2.20;;;;;;;;;;5053623;28;20068;-77
2023/05/25 14:42:01;;;;;;;3.25;2.00;;;;;;;;;;5058467;28;20039;-78
2023/05/25 14:44:27;;;;;;;5.63;2.40;;;;;;;;;;5057574;28;20024;-76